sensor_id;sensor_type;location;lat;lon;timestamp;temperature;humidity
16999;DHT22;10211;49.476;11.010;2023-02-25T00:01:13;3.40;99.90
16999;DHT22;10211;49.476;11.010;2023-02-25T00:03:41;3.50;99.90
16999;DHT22;10211;49.476;11.010;2023-02-25T00:06:10;3.50;99.90
16999;DHT22;10211;49.476;11.010;2023-02-25T00:08:38;3.50;99.90
16999;DHT22;10211;49.476;11.010;2023-02-25T00:11:06;3.50;99.90
16999;DHT22;10211;49.476;11.010;2023-02-25T00:13:33;3.50;99.90
16999;DHT22;10211;49.476;11.010;2023-02-25T00:16:02;3.50;99.90
16999;DHT22;10211;49.476;11.010;2023-02-25T00:18:29;3.60;99.90
16999;DHT22;10211;49.476;11.010;2023-02-25T00:20:58;3.60;99.90
16999;DHT22;10211;49.476;11.010;2023-02-25T00:23:25;3.50;99.90
16999;DHT22;10211;49.476;11.010;2023-02-25T00:25:57;3.50;99.90
16999;DHT22;10211;49.476;11.010;2023-02-25T00:28:24;3.50;99.90
16999;DHT22;10211;49.476;11.010;2023-02-25T00:30:51;3.50;99.90
16999;DHT22;10211;49.476;11.010;2023-02-25T00:33:18;3.40;99.90
16999;DHT22;10211;49.476;11.010;2023-02-25T00:35:45;3.40;99.90
16999;DHT22;10211;49.476;11.010;2023-02-25T00:38:14;3.40;99.90
16999;DHT22;10211;49.476;11.010;2023-02-25T00:40:40;3.30;99.90
16999;DHT22;10211;49.476;11.010;2023-02-25T00:43:07;3.30;99.90
16999;DHT22;10211;49.476;11.010;2023-02-25T00:45:34;3.30;99.90
16999;DHT22;10211;49.476;11.010;2023-02-25T00:48:00;3.40;99.90
16999;DHT22;10211;49.476;11.010;2023-02-25T00:50:27;3.40;99.90
16999;DHT22;10211;49.476;11.010;2023-02-25T00:52:54;3.40;99.90
16999;DHT22;10211;49.476;11.010;2023-02-25T00:55:22;3.50;99.90
16999;DHT22;10211;49.476;11.010;2023-02-25T00:57:49;3.50;99.90
16999;DHT22;10211;49.476;11.010;2023-02-25T01:00:16;3.50;99.90
16999;DHT22;10211;49.476;11.010;2023-02-25T01:02:44;3.50;99.90
16999;DHT22;10211;49.476;11.010;2023-02-25T01:05:10;3.50;99.90
16999;DHT22;10211;49.476;11.010;2023-02-25T01:07:37;3.50;99.90
16999;DHT22;10211;49.476;11.010;2023-02-25T01:10:05;3.30;99.90
16999;DHT22;10211;49.476;11.010;2023-02-25T01:12:33;3.30;99.90
16999;DHT22;10211;49.476;11.010;2023-02-25T01:15:00;3.20;99.90
16999;DHT22;10211;49.476;11.010;2023-02-25T01:17:27;3.10;99.90
16999;DHT22;10211;49.476;11.010;2023-02-25T01:19:54;3.10;99.90
16999;DHT22;10211;49.476;11.010;2023-02-25T01:22:21;3.00;99.90
16999;DHT22;10211;49.476;11.010;2023-02-25T01:24:48;3.00;99.90
16999;DHT22;10211;49.476;11.010;2023-02-25T01:27:15;3.00;99.90
16999;DHT22;10211;49.476;11.010;2023-02-25T01:29:43;3.00;99.90
16999;DHT22;10211;49.476;11.010;2023-02-25T01:32:12;3.00;99.90
16999;DHT22;10211;49.476;11.010;2023-02-25T01:34:39;3.00;99.90
16999;DHT22;10211;49.476;11.010;2023-02-25T01:37:06;3.00;99.90
16999;DHT22;10211;49.476;11.010;2023-02-25T01:39:33;3.10;99.90
16999;DHT22;10211;49.476;11.010;2023-02-25T01:42:03;3.10;99.90
16999;DHT22;10211;49.476;11.010;2023-02-25T01:44:31;3.10;99.90
16999;DHT22;10211;49.476;11.010;2023-02-25T01:47:00;3.10;99.90
16999;DHT22;10211;49.476;11.010;2023-02-25T01:49:30;3.10;99.90
16999;DHT22;10211;49.476;11.010;2023-02-25T01:52:01;3.10;99.90
16999;DHT22;10211;49.476;11.010;2023-02-25T01:54:29;3.10;99.90
16999;DHT22;10211;49.476;11.010;2023-02-25T01:56:56;3.00;99.90
16999;DHT22;10211;49.476;11.010;2023-02-25T01:59:26;3.00;99.90
16999;DHT22;10211;49.476;11.010;2023-02-25T02:01:54;2.90;99.90
16999;DHT22;10211;49.476;11.010;2023-02-25T02:04:23;2.90;99.90
16999;DHT22;10211;49.476;11.010;2023-02-25T02:06:51;2.80;99.90
16999;DHT22;10211;49.476;11.010;2023-02-25T02:09:20;2.80;99.90
16999;DHT22;10211;49.476;11.010;2023-02-25T02:11:48;2.80;99.90
16999;DHT22;10211;49.476;11.010;2023-02-25T02:14:18;2.80;99.90
16999;DHT22;10211;49.476;11.010;2023-02-25T02:17:10;2.80;99.90
16999;DHT22;10211;49.476;11.010;2023-02-25T02:22:43;2.90;99.90
16999;DHT22;10211;49.476;11.010;2023-02-25T02:25:43;2.90;99.90
16999;DHT22;10211;49.476;11.010;2023-02-25T02:31:37;3.00;99.90
16999;DHT22;10211;49.476;11.010;2023-02-25T02:34:15;3.00;99.90
16999;DHT22;10211;49.476;11.010;2023-02-25T02:36:51;3.00;99.90
16999;DHT22;10211;49.476;11.010;2023-02-25T02:39:26;2.90;99.90
16999;DHT22;10211;49.476;11.010;2023-02-25T02:41:59;2.80;99.90
16999;DHT22;10211;49.476;11.010;2023-02-25T02:44:32;2.80;99.90
16999;DHT22;10211;49.476;11.010;2023-02-25T02:47:05;2.80;99.90
16999;DHT22;10211;49.476;11.010;2023-02-25T02:49:38;2.80;99.90
16999;DHT22;10211;49.476;11.010;2023-02-25T02:52:10;2.80;99.90
16999;DHT22;10211;49.476;11.010;2023-02-25T02:54:40;2.80;99.90
16999;DHT22;10211;49.476;11.010;2023-02-25T02:57:10;2.80;99.90
16999;DHT22;10211;49.476;11.010;2023-02-25T02:59:42;2.80;99.90
16999;DHT22;10211;49.476;11.010;2023-02-25T03:02:14;2.90;99.90
16999;DHT22;10211;49.476;11.010;2023-02-25T03:04:45;2.90;99.90
16999;DHT22;10211;49.476;11.010;2023-02-25T03:07:14;3.00;99.90
16999;DHT22;10211;49.476;11.010;2023-02-25T03:09:46;3.00;99.90
16999;DHT22;10211;49.476;11.010;2023-02-25T03:12:14;3.00;99.90
16999;DHT22;10211;49.476;11.010;2023-02-25T03:14:41;3.10;99.90
16999;DHT22;10211;49.476;11.010;2023-02-25T03:17:09;3.00;99.90
16999;DHT22;10211;49.476;11.010;2023-02-25T03:19:39;3.10;99.90
16999;DHT22;10211;49.476;11.010;2023-02-25T03:22:09;3.10;99.90
16999;DHT22;10211;49.476;11.010;2023-02-25T03:24:42;3.10;99.90
16999;DHT22;10211;49.476;11.010;2023-02-25T03:27:26;3.10;99.90
16999;DHT22;10211;49.476;11.010;2023-02-25T03:29:56;3.20;99.90
16999;DHT22;10211;49.476;11.010;2023-02-25T03:32:28;3.10;99.90
16999;DHT22;10211;49.476;11.010;2023-02-25T03:34:59;3.20;99.90
16999;DHT22;10211;49.476;11.010;2023-02-25T03:37:31;3.10;99.90
16999;DHT22;10211;49.476;11.010;2023-02-25T03:40:00;3.10;99.90
16999;DHT22;10211;49.476;11.010;2023-02-25T03:42:37;3.10;99.90
16999;DHT22;10211;49.476;11.010;2023-02-25T03:45:07;3.10;99.90
16999;DHT22;10211;49.476;11.010;2023-02-25T03:47:36;3.10;99.90
16999;DHT22;10211;49.476;11.010;2023-02-25T03:50:08;3.10;99.90
16999;DHT22;10211;49.476;11.010;2023-02-25T03:52:37;3.10;99.90
16999;DHT22;10211;49.476;11.010;2023-02-25T03:55:05;3.10;99.90
16999;DHT22;10211;49.476;11.010;2023-02-25T03:57:35;3.10;99.90
16999;DHT22;10211;49.476;11.010;2023-02-25T04:00:05;3.10;99.90
16999;DHT22;10211;49.476;11.010;2023-02-25T04:02:40;3.00;99.90
16999;DHT22;10211;49.476;11.010;2023-02-25T04:05:08;2.90;99.90
16999;DHT22;10211;49.476;11.010;2023-02-25T04:07:36;2.80;99.90
16999;DHT22;10211;49.476;11.010;2023-02-25T04:10:03;2.80;99.90
16999;DHT22;10211;49.476;11.010;2023-02-25T04:12:29;2.70;99.90
16999;DHT22;10211;49.476;11.010;2023-02-25T04:14:56;2.70;99.90
16999;DHT22;10211;49.476;11.010;2023-02-25T04:17:23;2.70;99.90
16999;DHT22;10211;49.476;11.010;2023-02-25T04:19:50;2.70;99.90
16999;DHT22;10211;49.476;11.010;2023-02-25T04:22:18;2.70;99.90
16999;DHT22;10211;49.476;11.010;2023-02-25T04:24:44;2.70;99.90
16999;DHT22;10211;49.476;11.010;2023-02-25T04:27:11;2.70;99.90
16999;DHT22;10211;49.476;11.010;2023-02-25T04:29:40;2.70;99.90
16999;DHT22;10211;49.476;11.010;2023-02-25T04:32:06;2.70;99.90
16999;DHT22;10211;49.476;11.010;2023-02-25T04:34:33;2.70;99.90
16999;DHT22;10211;49.476;11.010;2023-02-25T04:37:00;2.70;99.90
16999;DHT22;10211;49.476;11.010;2023-02-25T04:39:30;2.80;99.90
16999;DHT22;10211;49.476;11.010;2023-02-25T04:41:58;2.80;99.90
16999;DHT22;10211;49.476;11.010;2023-02-25T04:44:25;2.80;99.90
16999;DHT22;10211;49.476;11.010;2023-02-25T04:46:51;2.80;99.90
16999;DHT22;10211;49.476;11.010;2023-02-25T04:49:21;2.80;99.90
16999;DHT22;10211;49.476;11.010;2023-02-25T04:51:48;2.90;99.90
16999;DHT22;10211;49.476;11.010;2023-02-25T04:54:16;2.80;99.90
16999;DHT22;10211;49.476;11.010;2023-02-25T04:56:45;2.80;99.90
16999;DHT22;10211;49.476;11.010;2023-02-25T04:59:12;2.80;99.90
16999;DHT22;10211;49.476;11.010;2023-02-25T05:01:39;2.80;99.90
16999;DHT22;10211;49.476;11.010;2023-02-25T05:04:06;2.80;99.90
16999;DHT22;10211;49.476;11.010;2023-02-25T05:06:33;2.80;99.90
16999;DHT22;10211;49.476;11.010;2023-02-25T05:09:00;2.80;99.90
16999;DHT22;10211;49.476;11.010;2023-02-25T05:11:28;2.80;99.90
16999;DHT22;10211;49.476;11.010;2023-02-25T05:13:56;2.80;99.90
16999;DHT22;10211;49.476;11.010;2023-02-25T05:16:23;2.90;99.90
16999;DHT22;10211;49.476;11.010;2023-02-25T05:18:50;2.90;99.90
16999;DHT22;10211;49.476;11.010;2023-02-25T05:21:19;2.90;99.90
16999;DHT22;10211;49.476;11.010;2023-02-25T05:23:47;3.00;99.90
16999;DHT22;10211;49.476;11.010;2023-02-25T05:26:16;3.00;99.90
16999;DHT22;10211;49.476;11.010;2023-02-25T05:28:47;3.00;99.90
16999;DHT22;10211;49.476;11.010;2023-02-25T05:31:15;3.00;99.90
16999;DHT22;10211;49.476;11.010;2023-02-25T05:33:42;3.00;99.90
16999;DHT22;10211;49.476;11.010;2023-02-25T05:36:11;2.90;99.90
16999;DHT22;10211;49.476;11.010;2023-02-25T05:38:39;2.90;99.90
16999;DHT22;10211;49.476;11.010;2023-02-25T05:41:07;2.90;99.90
16999;DHT22;10211;49.476;11.010;2023-02-25T05:43:35;2.90;99.90
16999;DHT22;10211;49.476;11.010;2023-02-25T05:46:02;2.90;99.90
16999;DHT22;10211;49.476;11.010;2023-02-25T05:48:31;2.90;99.90
16999;DHT22;10211;49.476;11.010;2023-02-25T05:51:00;2.90;99.90
16999;DHT22;10211;49.476;11.010;2023-02-25T05:53:27;2.90;99.90
16999;DHT22;10211;49.476;11.010;2023-02-25T05:55:54;2.90;99.90
16999;DHT22;10211;49.476;11.010;2023-02-25T05:58:21;2.90;99.90
16999;DHT22;10211;49.476;11.010;2023-02-25T06:00:48;2.90;99.90
16999;DHT22;10211;49.476;11.010;2023-02-25T06:03:14;2.90;99.90
16999;DHT22;10211;49.476;11.010;2023-02-25T06:05:43;3.00;99.90
16999;DHT22;10211;49.476;11.010;2023-02-25T06:08:10;3.00;99.90
16999;DHT22;10211;49.476;11.010;2023-02-25T06:10:37;3.00;99.90
16999;DHT22;10211;49.476;11.010;2023-02-25T06:13:04;3.00;99.90
16999;DHT22;10211;49.476;11.010;2023-02-25T06:15:31;3.00;99.90
16999;DHT22;10211;49.476;11.010;2023-02-25T06:17:58;3.00;99.90
16999;DHT22;10211;49.476;11.010;2023-02-25T06:20:25;3.00;99.90
16999;DHT22;10211;49.476;11.010;2023-02-25T06:22:53;3.00;99.90
16999;DHT22;10211;49.476;11.010;2023-02-25T06:25:20;3.00;99.90
16999;DHT22;10211;49.476;11.010;2023-02-25T06:27:47;3.00;99.90
16999;DHT22;10211;49.476;11.010;2023-02-25T06:30:15;3.00;99.90
16999;DHT22;10211;49.476;11.010;2023-02-25T06:32:41;3.00;99.90
16999;DHT22;10211;49.476;11.010;2023-02-25T06:35:08;3.00;99.90
16999;DHT22;10211;49.476;11.010;2023-02-25T06:37:35;3.00;99.90
16999;DHT22;10211;49.476;11.010;2023-02-25T06:40:04;3.00;99.90
16999;DHT22;10211;49.476;11.010;2023-02-25T06:42:32;3.10;99.90
16999;DHT22;10211;49.476;11.010;2023-02-25T06:44:59;3.10;99.90
16999;DHT22;10211;49.476;11.010;2023-02-25T06:47:26;3.10;99.90
16999;DHT22;10211;49.476;11.010;2023-02-25T06:49:52;3.10;99.90
16999;DHT22;10211;49.476;11.010;2023-02-25T06:52:19;3.20;99.90
16999;DHT22;10211;49.476;11.010;2023-02-25T06:54:46;3.20;99.90
16999;DHT22;10211;49.476;11.010;2023-02-25T06:57:14;3.20;99.90
16999;DHT22;10211;49.476;11.010;2023-02-25T06:59:40;3.20;99.90
16999;DHT22;10211;49.476;11.010;2023-02-25T07:02:13;3.20;99.90
16999;DHT22;10211;49.476;11.010;2023-02-25T07:04:40;3.30;99.90
16999;DHT22;10211;49.476;11.010;2023-02-25T07:07:07;3.30;99.90
16999;DHT22;10211;49.476;11.010;2023-02-25T07:09:33;3.30;99.90
16999;DHT22;10211;49.476;11.010;2023-02-25T07:12:00;3.30;99.90
16999;DHT22;10211;49.476;11.010;2023-02-25T07:14:28;3.30;99.90
16999;DHT22;10211;49.476;11.010;2023-02-25T07:16:55;3.40;99.90
16999;DHT22;10211;49.476;11.010;2023-02-25T07:19:22;3.40;99.90
16999;DHT22;10211;49.476;11.010;2023-02-25T07:21:48;3.40;99.90
16999;DHT22;10211;49.476;11.010;2023-02-25T07:24:15;3.40;99.90
16999;DHT22;10211;49.476;11.010;2023-02-25T07:26:42;3.50;99.90
16999;DHT22;10211;49.476;11.010;2023-02-25T07:29:09;3.50;99.90
16999;DHT22;10211;49.476;11.010;2023-02-25T07:31:37;3.50;99.90
16999;DHT22;10211;49.476;11.010;2023-02-25T07:34:03;3.50;99.90
16999;DHT22;10211;49.476;11.010;2023-02-25T07:36:31;3.60;99.90
16999;DHT22;10211;49.476;11.010;2023-02-25T07:39:00;3.60;99.90
16999;DHT22;10211;49.476;11.010;2023-02-25T07:41:28;3.70;99.90
16999;DHT22;10211;49.476;11.010;2023-02-25T07:43:55;3.70;99.90
16999;DHT22;10211;49.476;11.010;2023-02-25T07:46:22;3.70;99.90
16999;DHT22;10211;49.476;11.010;2023-02-25T07:48:51;3.80;99.90
16999;DHT22;10211;49.476;11.010;2023-02-25T07:51:20;3.80;99.90
16999;DHT22;10211;49.476;11.010;2023-02-25T07:53:48;3.70;99.90
16999;DHT22;10211;49.476;11.010;2023-02-25T07:56:17;3.70;99.90
16999;DHT22;10211;49.476;11.010;2023-02-25T07:58:44;3.70;99.90
16999;DHT22;10211;49.476;11.010;2023-02-25T08:01:17;3.70;99.90
16999;DHT22;10211;49.476;11.010;2023-02-25T08:03:45;3.70;99.90
16999;DHT22;10211;49.476;11.010;2023-02-25T08:06:13;3.80;99.90
16999;DHT22;10211;49.476;11.010;2023-02-25T08:08:40;3.80;99.90
16999;DHT22;10211;49.476;11.010;2023-02-25T08:11:08;3.80;99.90
16999;DHT22;10211;49.476;11.010;2023-02-25T08:13:36;3.90;99.90
16999;DHT22;10211;49.476;11.010;2023-02-25T08:16:03;4.00;99.90
16999;DHT22;10211;49.476;11.010;2023-02-25T08:18:30;4.20;99.90
16999;DHT22;10211;49.476;11.010;2023-02-25T08:20:57;4.40;99.90
16999;DHT22;10211;49.476;11.010;2023-02-25T08:23:25;4.60;99.90
16999;DHT22;10211;49.476;11.010;2023-02-25T08:25:52;4.70;99.90
16999;DHT22;10211;49.476;11.010;2023-02-25T08:28:20;4.80;99.90
16999;DHT22;10211;49.476;11.010;2023-02-25T08:30:47;4.90;99.90
16999;DHT22;10211;49.476;11.010;2023-02-25T08:33:14;5.10;99.90
16999;DHT22;10211;49.476;11.010;2023-02-25T08:35:40;5.40;99.90
16999;DHT22;10211;49.476;11.010;2023-02-25T08:38:07;5.30;99.90
16999;DHT22;10211;49.476;11.010;2023-02-25T08:40:35;5.50;99.90
16999;DHT22;10211;49.476;11.010;2023-02-25T08:43:03;5.50;99.90
16999;DHT22;10211;49.476;11.010;2023-02-25T08:45:30;5.50;99.90
16999;DHT22;10211;49.476;11.010;2023-02-25T08:47:56;5.60;99.90
16999;DHT22;10211;49.476;11.010;2023-02-25T08:50:23;5.60;99.90
16999;DHT22;10211;49.476;11.010;2023-02-25T08:52:50;5.50;99.90
16999;DHT22;10211;49.476;11.010;2023-02-25T08:55:17;5.40;99.90
16999;DHT22;10211;49.476;11.010;2023-02-25T08:57:45;5.60;99.90
16999;DHT22;10211;49.476;11.010;2023-02-25T09:00:14;5.60;99.90
16999;DHT22;10211;49.476;11.010;2023-02-25T09:02:41;5.50;99.90
16999;DHT22;10211;49.476;11.010;2023-02-25T09:05:09;5.50;99.90
16999;DHT22;10211;49.476;11.010;2023-02-25T09:07:36;5.60;99.90
16999;DHT22;10211;49.476;11.010;2023-02-25T09:10:03;5.40;99.90
16999;DHT22;10211;49.476;11.010;2023-02-25T09:12:32;5.30;99.90
16999;DHT22;10211;49.476;11.010;2023-02-25T09:15:02;5.20;99.90
16999;DHT22;10211;49.476;11.010;2023-02-25T09:17:29;5.10;99.90
16999;DHT22;10211;49.476;11.010;2023-02-25T09:19:56;5.00;99.90
16999;DHT22;10211;49.476;11.010;2023-02-25T09:22:25;5.00;99.90
16999;DHT22;10211;49.476;11.010;2023-02-25T09:24:52;5.00;99.90
16999;DHT22;10211;49.476;11.010;2023-02-25T09:27:19;5.10;99.90
16999;DHT22;10211;49.476;11.010;2023-02-25T09:29:45;5.10;99.90
16999;DHT22;10211;49.476;11.010;2023-02-25T09:32:17;5.00;99.90
16999;DHT22;10211;49.476;11.010;2023-02-25T09:34:44;5.00;99.90
16999;DHT22;10211;49.476;11.010;2023-02-25T09:37:10;4.90;99.90
16999;DHT22;10211;49.476;11.010;2023-02-25T09:39:38;4.80;99.90
16999;DHT22;10211;49.476;11.010;2023-02-25T09:42:09;4.80;99.90
16999;DHT22;10211;49.476;11.010;2023-02-25T09:44:39;4.70;99.90
16999;DHT22;10211;49.476;11.010;2023-02-25T09:47:12;4.70;99.90
16999;DHT22;10211;49.476;11.010;2023-02-25T09:49:44;4.70;99.90
16999;DHT22;10211;49.476;11.010;2023-02-25T09:52:15;4.70;99.90
16999;DHT22;10211;49.476;11.010;2023-02-25T09:54:45;4.70;99.90
16999;DHT22;10211;49.476;11.010;2023-02-25T09:57:17;4.70;99.90
16999;DHT22;10211;49.476;11.010;2023-02-25T09:59:45;4.80;99.90
16999;DHT22;10211;49.476;11.010;2023-02-25T10:02:21;4.80;99.90
16999;DHT22;10211;49.476;11.010;2023-02-25T10:05:02;4.90;99.90
16999;DHT22;10211;49.476;11.010;2023-02-25T10:07:34;5.00;99.90
16999;DHT22;10211;49.476;11.010;2023-02-25T10:10:08;5.30;99.90
16999;DHT22;10211;49.476;11.010;2023-02-25T10:12:43;5.60;99.90
16999;DHT22;10211;49.476;11.010;2023-02-25T10:15:23;5.70;99.90
16999;DHT22;10211;49.476;11.010;2023-02-25T10:18:03;5.90;99.90
16999;DHT22;10211;49.476;11.010;2023-02-25T10:20:49;6.10;99.90
16999;DHT22;10211;49.476;11.010;2023-02-25T10:23:47;6.10;99.90
16999;DHT22;10211;49.476;11.010;2023-02-25T10:26:19;6.10;99.90
16999;DHT22;10211;49.476;11.010;2023-02-25T10:28:52;5.90;99.90
16999;DHT22;10211;49.476;11.010;2023-02-25T10:31:22;5.90;99.90
16999;DHT22;10211;49.476;11.010;2023-02-25T10:33:50;6.00;99.90
16999;DHT22;10211;49.476;11.010;2023-02-25T10:36:24;6.10;99.90
16999;DHT22;10211;49.476;11.010;2023-02-25T10:38:52;6.00;99.90
16999;DHT22;10211;49.476;11.010;2023-02-25T10:41:21;5.90;99.90
16999;DHT22;10211;49.476;11.010;2023-02-25T10:43:50;5.90;99.90
16999;DHT22;10211;49.476;11.010;2023-02-25T10:46:20;5.70;99.90
16999;DHT22;10211;49.476;11.010;2023-02-25T10:48:54;5.70;99.90
16999;DHT22;10211;49.476;11.010;2023-02-25T10:51:23;5.90;99.90
16999;DHT22;10211;49.476;11.010;2023-02-25T10:54:04;6.20;99.90
16999;DHT22;10211;49.476;11.010;2023-02-25T10:56:36;6.60;99.90
16999;DHT22;10211;49.476;11.010;2023-02-25T10:59:07;6.50;99.90
16999;DHT22;10211;49.476;11.010;2023-02-25T11:01:37;6.50;99.90
16999;DHT22;10211;49.476;11.010;2023-02-25T11:04:08;6.60;99.90
16999;DHT22;10211;49.476;11.010;2023-02-25T11:06:39;6.70;99.90
16999;DHT22;10211;49.476;11.010;2023-02-25T11:09:26;6.90;99.90
16999;DHT22;10211;49.476;11.010;2023-02-25T11:11:56;7.00;99.90
16999;DHT22;10211;49.476;11.010;2023-02-25T11:14:26;7.30;99.90
16999;DHT22;10211;49.476;11.010;2023-02-25T11:17:00;7.40;99.90
16999;DHT22;10211;49.476;11.010;2023-02-25T11:19:29;7.20;99.90
16999;DHT22;10211;49.476;11.010;2023-02-25T11:22:06;6.60;99.90
16999;DHT22;10211;49.476;11.010;2023-02-25T11:24:36;5.70;99.90
16999;DHT22;10211;49.476;11.010;2023-02-25T11:27:05;5.00;99.90
16999;DHT22;10211;49.476;11.010;2023-02-25T11:29:34;4.80;99.90
16999;DHT22;10211;49.476;11.010;2023-02-25T11:32:09;4.90;99.90
16999;DHT22;10211;49.476;11.010;2023-02-25T11:34:44;5.50;99.90
16999;DHT22;10211;49.476;11.010;2023-02-25T11:37:35;8.30;99.90
16999;DHT22;10211;49.476;11.010;2023-02-25T11:40:19;10.80;99.90
16999;DHT22;10211;49.476;11.010;2023-02-25T11:42:59;13.50;96.60
16999;DHT22;10211;49.476;11.010;2023-02-25T11:45:28;13.00;91.90
16999;DHT22;10211;49.476;11.010;2023-02-25T11:47:56;11.20;93.80
16999;DHT22;10211;49.476;11.010;2023-02-25T11:50:25;9.00;98.40
16999;DHT22;10211;49.476;11.010;2023-02-25T11:53:02;6.90;99.90
16999;DHT22;10211;49.476;11.010;2023-02-25T11:55:42;5.60;99.90
16999;DHT22;10211;49.476;11.010;2023-02-25T11:58:18;4.90;99.90
16999;DHT22;10211;49.476;11.010;2023-02-25T12:00:54;4.60;99.90
16999;DHT22;10211;49.476;11.010;2023-02-25T12:03:38;4.40;99.90
16999;DHT22;10211;49.476;11.010;2023-02-25T12:06:18;4.30;99.90
16999;DHT22;10211;49.476;11.010;2023-02-25T12:09:02;4.30;99.90
16999;DHT22;10211;49.476;11.010;2023-02-25T12:12:06;4.40;99.90
16999;DHT22;10211;49.476;11.010;2023-02-25T12:24:35;7.80;99.90
16999;DHT22;10211;49.476;11.010;2023-02-25T12:27:42;7.70;99.90
16999;DHT22;10211;49.476;11.010;2023-02-25T12:30:35;7.90;99.90
16999;DHT22;10211;49.476;11.010;2023-02-25T12:33:13;7.70;99.90
16999;DHT22;10211;49.476;11.010;2023-02-25T12:35:52;7.30;99.90
16999;DHT22;10211;49.476;11.010;2023-02-25T12:39:04;7.20;99.90
16999;DHT22;10211;49.476;11.010;2023-02-25T12:41:39;7.00;99.90
16999;DHT22;10211;49.476;11.010;2023-02-25T12:44:29;6.90;99.90
16999;DHT22;10211;49.476;11.010;2023-02-25T12:47:14;7.20;99.90
16999;DHT22;10211;49.476;11.010;2023-02-25T12:50:02;7.20;99.90
16999;DHT22;10211;49.476;11.010;2023-02-25T12:52:42;6.70;99.90
16999;DHT22;10211;49.476;11.010;2023-02-25T12:55:35;6.40;99.90
16999;DHT22;10211;49.476;11.010;2023-02-25T12:58:18;6.10;99.90
16999;DHT22;10211;49.476;11.010;2023-02-25T13:01:20;5.80;99.90
16999;DHT22;10211;49.476;11.010;2023-02-25T13:04:00;5.40;99.90
16999;DHT22;10211;49.476;11.010;2023-02-25T13:10:01;5.10;99.90
16999;DHT22;10211;49.476;11.010;2023-02-25T13:12:46;5.70;99.90
16999;DHT22;10211;49.476;11.010;2023-02-25T13:15:19;5.90;99.90
16999;DHT22;10211;49.476;11.010;2023-02-25T13:18:09;5.80;99.90
16999;DHT22;10211;49.476;11.010;2023-02-25T13:20:52;5.30;99.90
16999;DHT22;10211;49.476;11.010;2023-02-25T13:26:23;3.40;99.90
16999;DHT22;10211;49.476;11.010;2023-02-25T13:29:08;3.80;99.90
16999;DHT22;10211;49.476;11.010;2023-02-25T13:31:47;3.60;99.90
16999;DHT22;10211;49.476;11.010;2023-02-25T13:34:27;3.50;99.90
16999;DHT22;10211;49.476;11.010;2023-02-25T13:37:08;3.30;99.90
16999;DHT22;10211;49.476;11.010;2023-02-25T13:40:00;3.10;99.90
16999;DHT22;10211;49.476;11.010;2023-02-25T13:42:44;3.00;99.90
16999;DHT22;10211;49.476;11.010;2023-02-25T13:45:51;3.00;99.90
16999;DHT22;10211;49.476;11.010;2023-02-25T13:48:40;3.00;99.90
16999;DHT22;10211;49.476;11.010;2023-02-25T13:51:21;3.00;99.90
16999;DHT22;10211;49.476;11.010;2023-02-25T13:54:04;3.00;99.90
16999;DHT22;10211;49.476;11.010;2023-02-25T13:56:50;3.00;99.90
16999;DHT22;10211;49.476;11.010;2023-02-25T14:02:24;3.10;99.90
16999;DHT22;10211;49.476;11.010;2023-02-25T14:05:19;3.20;99.90
16999;DHT22;10211;49.476;11.010;2023-02-25T14:07:57;3.30;99.90
16999;DHT22;10211;49.476;11.010;2023-02-25T14:10:41;3.30;99.90
16999;DHT22;10211;49.476;11.010;2023-02-25T14:16:41;2.70;99.90
16999;DHT22;10211;49.476;11.010;2023-02-25T14:19:30;2.20;99.90
16999;DHT22;10211;49.476;11.010;2023-02-25T14:22:25;2.20;99.90
16999;DHT22;10211;49.476;11.010;2023-02-25T14:25:02;2.20;99.90
16999;DHT22;10211;49.476;11.010;2023-02-25T14:27:40;2.20;99.90
16999;DHT22;10211;49.476;11.010;2023-02-25T14:30:16;2.20;99.90
16999;DHT22;10211;49.476;11.010;2023-02-25T14:32:54;2.20;99.90
16999;DHT22;10211;49.476;11.010;2023-02-25T14:35:48;2.30;99.90
16999;DHT22;10211;49.476;11.010;2023-02-25T14:38:36;2.50;99.90
16999;DHT22;10211;49.476;11.010;2023-02-25T14:41:14;2.70;99.90
16999;DHT22;10211;49.476;11.010;2023-02-25T14:43:46;2.80;99.90
16999;DHT22;10211;49.476;11.010;2023-02-25T14:46:21;3.00;99.90
16999;DHT22;10211;49.476;11.010;2023-02-25T14:48:58;3.10;99.90
16999;DHT22;10211;49.476;11.010;2023-02-25T14:51:39;3.10;99.90
16999;DHT22;10211;49.476;11.010;2023-02-25T14:54:39;3.20;99.90
16999;DHT22;10211;49.476;11.010;2023-02-25T14:57:32;3.20;99.90
16999;DHT22;10211;49.476;11.010;2023-02-25T15:00:25;3.10;99.90
16999;DHT22;10211;49.476;11.010;2023-02-25T15:03:29;3.20;99.90
16999;DHT22;10211;49.476;11.010;2023-02-25T15:06:11;3.20;99.90
16999;DHT22;10211;49.476;11.010;2023-02-25T15:09:02;3.30;99.90
16999;DHT22;10211;49.476;11.010;2023-02-25T15:14:41;3.40;99.90
16999;DHT22;10211;49.476;11.010;2023-02-25T15:20:35;3.40;99.90
16999;DHT22;10211;49.476;11.010;2023-02-25T15:23:08;3.50;99.90
16999;DHT22;10211;49.476;11.010;2023-02-25T15:25:45;3.60;99.90
16999;DHT22;10211;49.476;11.010;2023-02-25T15:28:38;3.60;99.90
16999;DHT22;10211;49.476;11.010;2023-02-25T15:31:24;3.60;99.90
16999;DHT22;10211;49.476;11.010;2023-02-25T15:33:53;3.40;99.90
16999;DHT22;10211;49.476;11.010;2023-02-25T15:36:27;3.30;99.90
16999;DHT22;10211;49.476;11.010;2023-02-25T15:39:07;3.20;99.90
16999;DHT22;10211;49.476;11.010;2023-02-25T15:41:41;3.00;99.90
16999;DHT22;10211;49.476;11.010;2023-02-25T15:44:39;3.00;99.90
16999;DHT22;10211;49.476;11.010;2023-02-25T15:47:24;3.00;99.90
16999;DHT22;10211;49.476;11.010;2023-02-25T15:49:51;3.00;99.90
16999;DHT22;10211;49.476;11.010;2023-02-25T15:52:53;3.00;99.90
16999;DHT22;10211;49.476;11.010;2023-02-25T15:55:37;2.90;99.90
16999;DHT22;10211;49.476;11.010;2023-02-25T16:01:40;2.90;99.90
16999;DHT22;10211;49.476;11.010;2023-02-25T16:04:43;2.90;99.90
16999;DHT22;10211;49.476;11.010;2023-02-25T16:07:13;2.90;99.90
16999;DHT22;10211;49.476;11.010;2023-02-25T16:09:45;2.70;99.90
16999;DHT22;10211;49.476;11.010;2023-02-25T16:12:14;2.60;99.90
16999;DHT22;10211;49.476;11.010;2023-02-25T16:14:43;2.40;99.90
16999;DHT22;10211;49.476;11.010;2023-02-25T16:17:16;2.30;99.90
16999;DHT22;10211;49.476;11.010;2023-02-25T16:19:46;2.30;99.90
16999;DHT22;10211;49.476;11.010;2023-02-25T16:22:18;2.20;99.90
16999;DHT22;10211;49.476;11.010;2023-02-25T16:24:47;2.10;99.90
16999;DHT22;10211;49.476;11.010;2023-02-25T16:27:22;2.00;99.90
16999;DHT22;10211;49.476;11.010;2023-02-25T16:29:59;2.00;99.90
16999;DHT22;10211;49.476;11.010;2023-02-25T16:32:36;2.00;99.90
16999;DHT22;10211;49.476;11.010;2023-02-25T16:35:08;2.00;99.90
16999;DHT22;10211;49.476;11.010;2023-02-25T16:37:42;2.00;99.90
16999;DHT22;10211;49.476;11.010;2023-02-25T16:40:15;2.00;99.90
16999;DHT22;10211;49.476;11.010;2023-02-25T16:42:44;2.00;99.90